sensor_id;sensor_type;location;lat;lon;timestamp;P1;durP1;ratioP1;P2;durP2;ratioP2
59062;SDS011;44851;45.648;9.004;2024-01-25T00:02:15;32.80;;;26.10;;
59062;SDS011;44851;45.648;9.004;2024-01-25T00:04:40;33.93;;;26.37;;
59062;SDS011;44851;45.648;9.004;2024-01-25T00:07:07;34.33;;;26.50;;
59062;SDS011;44851;45.648;9.004;2024-01-25T00:09:33;31.37;;;25.27;;
59062;SDS011;44851;45.648;9.004;2024-01-25T00:11:58;30.70;;;24.73;;
59062;SDS011;44851;45.648;9.004;2024-01-25T00:14:24;33.73;;;25.43;;
59062;SDS011;44851;45.648;9.004;2024-01-25T00:16:49;28.10;;;22.87;;
59062;SDS011;44851;45.648;9.004;2024-01-25T00:19:14;31.27;;;24.07;;
59062;SDS011;44851;45.648;9.004;2024-01-25T00:21:43;29.60;;;23.63;;
59062;SDS011;44851;45.648;9.004;2024-01-25T00:24:11;28.07;;;23.10;;
59062;SDS011;44851;45.648;9.004;2024-01-25T00:26:37;28.10;;;22.07;;
59062;SDS011;44851;45.648;9.004;2024-01-25T00:29:02;29.73;;;23.27;;
59062;SDS011;44851;45.648;9.004;2024-01-25T00:31:27;30.03;;;21.90;;
59062;SDS011;44851;45.648;9.004;2024-01-25T00:33:53;29.80;;;21.93;;
59062;SDS011;44851;45.648;9.004;2024-01-25T00:36:18;27.87;;;21.83;;
59062;SDS011;44851;45.648;9.004;2024-01-25T00:38:44;31.63;;;23.40;;
59062;SDS011;44851;45.648;9.004;2024-01-25T00:41:10;27.20;;;20.83;;
59062;SDS011;44851;45.648;9.004;2024-01-25T00:43:39;27.87;;;21.83;;
59062;SDS011;44851;45.648;9.004;2024-01-25T00:46:05;29.17;;;22.33;;
59062;SDS011;44851;45.648;9.004;2024-01-25T00:48:30;27.90;;;20.60;;
59062;SDS011;44851;45.648;9.004;2024-01-25T00:50:56;28.20;;;21.47;;
59062;SDS011;44851;45.648;9.004;2024-01-25T00:53:22;28.80;;;22.50;;
59062;SDS011;44851;45.648;9.004;2024-01-25T00:55:47;25.10;;;20.70;;
59062;SDS011;44851;45.648;9.004;2024-01-25T00:58:13;29.03;;;21.47;;
59062;SDS011;44851;45.648;9.004;2024-01-25T01:00:38;28.57;;;20.90;;
59062;SDS011;44851;45.648;9.004;2024-01-25T01:03:04;28.63;;;21.77;;
59062;SDS011;44851;45.648;9.004;2024-01-25T01:05:30;24.80;;;20.23;;
59062;SDS011;44851;45.648;9.004;2024-01-25T01:07:56;26.87;;;20.77;;
59062;SDS011;44851;45.648;9.004;2024-01-25T01:10:21;28.40;;;21.77;;
59062;SDS011;44851;45.648;9.004;2024-01-25T01:12:46;28.23;;;21.67;;
59062;SDS011;44851;45.648;9.004;2024-01-25T01:15:12;32.47;;;22.87;;
59062;SDS011;44851;45.648;9.004;2024-01-25T01:17:37;30.37;;;23.27;;
59062;SDS011;44851;45.648;9.004;2024-01-25T01:20:03;31.27;;;24.47;;
59062;SDS011;44851;45.648;9.004;2024-01-25T01:22:28;30.93;;;24.07;;
59062;SDS011;44851;45.648;9.004;2024-01-25T01:24:54;32.53;;;24.23;;
59062;SDS011;44851;45.648;9.004;2024-01-25T01:27:19;32.27;;;24.97;;
59062;SDS011;44851;45.648;9.004;2024-01-25T01:29:46;30.63;;;24.67;;
59062;SDS011;44851;45.648;9.004;2024-01-25T01:32:11;34.77;;;26.50;;
59062;SDS011;44851;45.648;9.004;2024-01-25T01:34:36;37.50;;;26.70;;
59062;SDS011;44851;45.648;9.004;2024-01-25T01:37:01;32.03;;;23.57;;
59062;SDS011;44851;45.648;9.004;2024-01-25T01:39:27;25.37;;;21.63;;
59062;SDS011;44851;45.648;9.004;2024-01-25T01:41:52;26.40;;;20.67;;
59062;SDS011;44851;45.648;9.004;2024-01-25T01:44:18;27.43;;;20.47;;
59062;SDS011;44851;45.648;9.004;2024-01-25T01:46:44;25.93;;;21.30;;
59062;SDS011;44851;45.648;9.004;2024-01-25T01:49:13;25.40;;;19.87;;
59062;SDS011;44851;45.648;9.004;2024-01-25T01:51:40;25.57;;;20.00;;
59062;SDS011;44851;45.648;9.004;2024-01-25T01:54:07;26.17;;;20.63;;
59062;SDS011;44851;45.648;9.004;2024-01-25T01:56:33;28.50;;;20.80;;
59062;SDS011;44851;45.648;9.004;2024-01-25T01:58:59;25.83;;;20.60;;
59062;SDS011;44851;45.648;9.004;2024-01-25T02:01:26;26.50;;;20.23;;
59062;SDS011;44851;45.648;9.004;2024-01-25T02:03:52;26.50;;;21.03;;
59062;SDS011;44851;45.648;9.004;2024-01-25T02:06:18;26.37;;;20.13;;
59062;SDS011;44851;45.648;9.004;2024-01-25T02:08:44;25.57;;;20.40;;
59062;SDS011;44851;45.648;9.004;2024-01-25T02:11:11;26.70;;;20.10;;
59062;SDS011;44851;45.648;9.004;2024-01-25T02:13:37;24.70;;;19.77;;
59062;SDS011;44851;45.648;9.004;2024-01-25T02:16:02;28.43;;;21.17;;
59062;SDS011;44851;45.648;9.004;2024-01-25T02:18:29;26.37;;;20.70;;
59062;SDS011;44851;45.648;9.004;2024-01-25T02:20:55;27.47;;;20.47;;
59062;SDS011;44851;45.648;9.004;2024-01-25T02:23:20;27.00;;;20.63;;
59062;SDS011;44851;45.648;9.004;2024-01-25T02:25:46;25.90;;;20.40;;
59062;SDS011;44851;45.648;9.004;2024-01-25T02:28:11;26.77;;;20.57;;
59062;SDS011;44851;45.648;9.004;2024-01-25T02:30:36;28.80;;;21.30;;
59062;SDS011;44851;45.648;9.004;2024-01-25T02:33:02;26.33;;;20.27;;
59062;SDS011;44851;45.648;9.004;2024-01-25T02:35:27;25.50;;;20.90;;
59062;SDS011;44851;45.648;9.004;2024-01-25T02:37:53;25.40;;;19.97;;
59062;SDS011;44851;45.648;9.004;2024-01-25T02:40:18;27.03;;;20.40;;
59062;SDS011;44851;45.648;9.004;2024-01-25T02:42:43;26.47;;;20.30;;
59062;SDS011;44851;45.648;9.004;2024-01-25T02:45:09;26.90;;;20.40;;
59062;SDS011;44851;45.648;9.004;2024-01-25T02:47:34;27.83;;;21.63;;
59062;SDS011;44851;45.648;9.004;2024-01-25T02:50:00;27.47;;;20.70;;
59062;SDS011;44851;45.648;9.004;2024-01-25T02:52:25;25.70;;;20.33;;
59062;SDS011;44851;45.648;9.004;2024-01-25T02:54:50;26.73;;;20.37;;
59062;SDS011;44851;45.648;9.004;2024-01-25T02:57:16;26.83;;;20.77;;
59062;SDS011;44851;45.648;9.004;2024-01-25T02:59:41;27.57;;;20.50;;
59062;SDS011;44851;45.648;9.004;2024-01-25T03:02:07;25.00;;;19.80;;
59062;SDS011;44851;45.648;9.004;2024-01-25T03:04:32;25.03;;;21.00;;
59062;SDS011;44851;45.648;9.004;2024-01-25T03:06:57;27.13;;;20.73;;
59062;SDS011;44851;45.648;9.004;2024-01-25T03:09:23;25.33;;;20.13;;
59062;SDS011;44851;45.648;9.004;2024-01-25T03:11:48;26.57;;;19.77;;
59062;SDS011;44851;45.648;9.004;2024-01-25T03:14:14;26.00;;;20.47;;
59062;SDS011;44851;45.648;9.004;2024-01-25T03:16:39;24.83;;;19.30;;
59062;SDS011;44851;45.648;9.004;2024-01-25T03:19:05;25.23;;;20.13;;
59062;SDS011;44851;45.648;9.004;2024-01-25T03:21:30;26.33;;;20.43;;
59062;SDS011;44851;45.648;9.004;2024-01-25T03:23:55;23.93;;;19.20;;
59062;SDS011;44851;45.648;9.004;2024-01-25T03:26:21;26.63;;;20.50;;
59062;SDS011;44851;45.648;9.004;2024-01-25T03:28:46;23.07;;;19.10;;
59062;SDS011;44851;45.648;9.004;2024-01-25T03:31:11;24.63;;;19.73;;
59062;SDS011;44851;45.648;9.004;2024-01-25T03:33:36;24.87;;;19.67;;
59062;SDS011;44851;45.648;9.004;2024-01-25T03:36:02;25.57;;;19.80;;
59062;SDS011;44851;45.648;9.004;2024-01-25T03:38:28;23.03;;;18.27;;
59062;SDS011;44851;45.648;9.004;2024-01-25T03:40:54;23.80;;;17.43;;
59062;SDS011;44851;45.648;9.004;2024-01-25T03:43:21;23.40;;;18.77;;
59062;SDS011;44851;45.648;9.004;2024-01-25T03:45:48;23.57;;;19.10;;
59062;SDS011;44851;45.648;9.004;2024-01-25T03:48:14;23.77;;;19.57;;
59062;SDS011;44851;45.648;9.004;2024-01-25T03:50:39;24.07;;;19.60;;
59062;SDS011;44851;45.648;9.004;2024-01-25T03:53:05;25.07;;;19.93;;
59062;SDS011;44851;45.648;9.004;2024-01-25T03:55:31;26.67;;;21.10;;
59062;SDS011;44851;45.648;9.004;2024-01-25T03:57:57;25.67;;;20.20;;
59062;SDS011;44851;45.648;9.004;2024-01-25T04:00:22;25.17;;;19.97;;
59062;SDS011;44851;45.648;9.004;2024-01-25T04:02:48;24.33;;;19.30;;
59062;SDS011;44851;45.648;9.004;2024-01-25T04:05:13;26.33;;;20.13;;
59062;SDS011;44851;45.648;9.004;2024-01-25T04:07:39;24.73;;;19.80;;
59062;SDS011;44851;45.648;9.004;2024-01-25T04:10:05;25.57;;;20.57;;
59062;SDS011;44851;45.648;9.004;2024-01-25T04:12:30;26.53;;;20.00;;
59062;SDS011;44851;45.648;9.004;2024-01-25T04:14:56;25.77;;;20.23;;
59062;SDS011;44851;45.648;9.004;2024-01-25T04:17:21;25.40;;;20.93;;
59062;SDS011;44851;45.648;9.004;2024-01-25T04:19:47;27.53;;;22.20;;
59062;SDS011;44851;45.648;9.004;2024-01-25T04:22:12;26.60;;;21.17;;
59062;SDS011;44851;45.648;9.004;2024-01-25T04:24:37;28.93;;;21.80;;
59062;SDS011;44851;45.648;9.004;2024-01-25T04:27:04;29.03;;;23.07;;
59062;SDS011;44851;45.648;9.004;2024-01-25T04:29:29;25.40;;;21.00;;
59062;SDS011;44851;45.648;9.004;2024-01-25T04:31:55;28.10;;;22.37;;
59062;SDS011;44851;45.648;9.004;2024-01-25T04:34:20;29.10;;;22.10;;
59062;SDS011;44851;45.648;9.004;2024-01-25T04:36:46;26.53;;;21.03;;
59062;SDS011;44851;45.648;9.004;2024-01-25T04:39:11;25.13;;;20.63;;
59062;SDS011;44851;45.648;9.004;2024-01-25T04:41:36;28.17;;;22.23;;
59062;SDS011;44851;45.648;9.004;2024-01-25T04:44:02;28.40;;;22.00;;
59062;SDS011;44851;45.648;9.004;2024-01-25T04:46:28;28.97;;;23.07;;
59062;SDS011;44851;45.648;9.004;2024-01-25T04:48:53;27.50;;;21.70;;
59062;SDS011;44851;45.648;9.004;2024-01-25T04:51:19;27.90;;;21.67;;
59062;SDS011;44851;45.648;9.004;2024-01-25T04:53:47;25.80;;;21.27;;
59062;SDS011;44851;45.648;9.004;2024-01-25T04:56:13;24.87;;;20.43;;
59062;SDS011;44851;45.648;9.004;2024-01-25T04:58:38;26.33;;;20.33;;
59062;SDS011;44851;45.648;9.004;2024-01-25T05:01:03;23.97;;;19.70;;
59062;SDS011;44851;45.648;9.004;2024-01-25T05:03:29;24.00;;;19.10;;
59062;SDS011;44851;45.648;9.004;2024-01-25T05:05:55;27.63;;;20.60;;
59062;SDS011;44851;45.648;9.004;2024-01-25T05:08:21;26.00;;;19.80;;
59062;SDS011;44851;45.648;9.004;2024-01-25T05:10:46;27.47;;;21.00;;
59062;SDS011;44851;45.648;9.004;2024-01-25T05:13:11;25.23;;;20.07;;
59062;SDS011;44851;45.648;9.004;2024-01-25T05:15:37;27.80;;;20.93;;
59062;SDS011;44851;45.648;9.004;2024-01-25T05:18:02;24.47;;;19.90;;
59062;SDS011;44851;45.648;9.004;2024-01-25T05:20:28;28.03;;;20.30;;
59062;SDS011;44851;45.648;9.004;2024-01-25T05:23:01;27.43;;;21.17;;
59062;SDS011;44851;45.648;9.004;2024-01-25T05:25:27;25.23;;;20.33;;
59062;SDS011;44851;45.648;9.004;2024-01-25T05:27:54;25.97;;;20.43;;
59062;SDS011;44851;45.648;9.004;2024-01-25T05:30:20;29.87;;;21.17;;
59062;SDS011;44851;45.648;9.004;2024-01-25T05:32:46;26.63;;;19.57;;
59062;SDS011;44851;45.648;9.004;2024-01-25T05:35:13;26.57;;;21.23;;
59062;SDS011;44851;45.648;9.004;2024-01-25T05:37:39;23.80;;;20.30;;
59062;SDS011;44851;45.648;9.004;2024-01-25T05:40:04;33.53;;;22.40;;
59062;SDS011;44851;45.648;9.004;2024-01-25T05:42:30;29.10;;;21.00;;
59062;SDS011;44851;45.648;9.004;2024-01-25T05:44:55;31.57;;;21.70;;
59062;SDS011;44851;45.648;9.004;2024-01-25T05:47:21;32.63;;;22.57;;
59062;SDS011;44851;45.648;9.004;2024-01-25T05:49:46;26.87;;;20.93;;
59062;SDS011;44851;45.648;9.004;2024-01-25T05:52:11;28.97;;;22.80;;
59062;SDS011;44851;45.648;9.004;2024-01-25T05:54:37;30.90;;;23.67;;
59062;SDS011;44851;45.648;9.004;2024-01-25T05:57:02;30.33;;;23.33;;
59062;SDS011;44851;45.648;9.004;2024-01-25T05:59:29;30.63;;;23.17;;
59062;SDS011;44851;45.648;9.004;2024-01-25T06:01:54;31.00;;;22.33;;
59062;SDS011;44851;45.648;9.004;2024-01-25T06:04:20;25.87;;;20.73;;
59062;SDS011;44851;45.648;9.004;2024-01-25T06:06:45;31.20;;;22.53;;
59062;SDS011;44851;45.648;9.004;2024-01-25T06:09:10;26.93;;;20.67;;
59062;SDS011;44851;45.648;9.004;2024-01-25T06:11:36;30.13;;;21.57;;
59062;SDS011;44851;45.648;9.004;2024-01-25T06:14:02;31.87;;;21.70;;
59062;SDS011;44851;45.648;9.004;2024-01-25T06:16:30;32.40;;;22.20;;
59062;SDS011;44851;45.648;9.004;2024-01-25T06:18:55;28.57;;;21.43;;
59062;SDS011;44851;45.648;9.004;2024-01-25T06:21:20;28.47;;;21.30;;
59062;SDS011;44851;45.648;9.004;2024-01-25T06:23:45;31.60;;;23.53;;
59062;SDS011;44851;45.648;9.004;2024-01-25T06:26:11;30.10;;;23.63;;
59062;SDS011;44851;45.648;9.004;2024-01-25T06:28:36;30.73;;;23.37;;
59062;SDS011;44851;45.648;9.004;2024-01-25T06:31:01;30.30;;;22.10;;
59062;SDS011;44851;45.648;9.004;2024-01-25T06:33:27;29.00;;;22.60;;
59062;SDS011;44851;45.648;9.004;2024-01-25T06:35:53;32.73;;;25.37;;
59062;SDS011;44851;45.648;9.004;2024-01-25T06:38:19;32.47;;;24.33;;
59062;SDS011;44851;45.648;9.004;2024-01-25T06:40:45;33.73;;;25.00;;
59062;SDS011;44851;45.648;9.004;2024-01-25T06:43:10;32.23;;;25.30;;
59062;SDS011;44851;45.648;9.004;2024-01-25T06:45:36;31.03;;;23.53;;
59062;SDS011;44851;45.648;9.004;2024-01-25T06:48:02;35.57;;;26.63;;
59062;SDS011;44851;45.648;9.004;2024-01-25T06:50:28;41.77;;;30.20;;
59062;SDS011;44851;45.648;9.004;2024-01-25T06:52:53;43.03;;;30.90;;
59062;SDS011;44851;45.648;9.004;2024-01-25T06:55:19;42.00;;;30.23;;
59062;SDS011;44851;45.648;9.004;2024-01-25T06:57:45;40.13;;;30.67;;
59062;SDS011;44851;45.648;9.004;2024-01-25T07:00:10;39.07;;;30.17;;
59062;SDS011;44851;45.648;9.004;2024-01-25T07:02:38;43.50;;;33.40;;
59062;SDS011;44851;45.648;9.004;2024-01-25T07:05:03;44.17;;;33.77;;
59062;SDS011;44851;45.648;9.004;2024-01-25T07:07:29;45.80;;;34.67;;
59062;SDS011;44851;45.648;9.004;2024-01-25T07:09:57;46.10;;;34.93;;
59062;SDS011;44851;45.648;9.004;2024-01-25T07:12:22;45.23;;;34.43;;
59062;SDS011;44851;45.648;9.004;2024-01-25T07:14:48;51.47;;;38.73;;
59062;SDS011;44851;45.648;9.004;2024-01-25T07:17:13;49.67;;;39.13;;
59062;SDS011;44851;45.648;9.004;2024-01-25T07:19:39;63.07;;;44.20;;
59062;SDS011;44851;45.648;9.004;2024-01-25T07:22:04;63.13;;;46.13;;
59062;SDS011;44851;45.648;9.004;2024-01-25T07:24:29;58.43;;;44.77;;
59062;SDS011;44851;45.648;9.004;2024-01-25T07:26:55;68.90;;;51.13;;
59062;SDS011;44851;45.648;9.004;2024-01-25T07:29:20;66.53;;;49.67;;
59062;SDS011;44851;45.648;9.004;2024-01-25T07:31:45;66.63;;;49.73;;
59062;SDS011;44851;45.648;9.004;2024-01-25T07:34:11;67.40;;;50.43;;
59062;SDS011;44851;45.648;9.004;2024-01-25T07:36:36;73.20;;;52.47;;
59062;SDS011;44851;45.648;9.004;2024-01-25T07:39:01;62.57;;;50.40;;
59062;SDS011;44851;45.648;9.004;2024-01-25T07:41:27;73.43;;;56.00;;
59062;SDS011;44851;45.648;9.004;2024-01-25T07:43:53;62.70;;;49.50;;
59062;SDS011;44851;45.648;9.004;2024-01-25T07:46:20;68.70;;;52.13;;
59062;SDS011;44851;45.648;9.004;2024-01-25T07:48:45;72.80;;;54.30;;
59062;SDS011;44851;45.648;9.004;2024-01-25T07:51:11;70.27;;;54.03;;
59062;SDS011;44851;45.648;9.004;2024-01-25T07:53:38;70.57;;;52.37;;
59062;SDS011;44851;45.648;9.004;2024-01-25T07:56:05;69.63;;;53.87;;
59062;SDS011;44851;45.648;9.004;2024-01-25T07:58:31;80.27;;;59.63;;
59062;SDS011;44851;45.648;9.004;2024-01-25T08:00:56;77.57;;;57.17;;
59062;SDS011;44851;45.648;9.004;2024-01-25T08:03:22;75.23;;;58.83;;
59062;SDS011;44851;45.648;9.004;2024-01-25T08:05:48;75.30;;;58.43;;
59062;SDS011;44851;45.648;9.004;2024-01-25T08:08:14;77.37;;;59.00;;
59062;SDS011;44851;45.648;9.004;2024-01-25T08:10:39;90.17;;;66.90;;
59062;SDS011;44851;45.648;9.004;2024-01-25T08:13:04;90.40;;;70.07;;
59062;SDS011;44851;45.648;9.004;2024-01-25T08:15:30;86.70;;;67.83;;
59062;SDS011;44851;45.648;9.004;2024-01-25T08:17:55;95.10;;;72.90;;
59062;SDS011;44851;45.648;9.004;2024-01-25T08:20:20;97.93;;;74.77;;
59062;SDS011;44851;45.648;9.004;2024-01-25T08:22:46;97.33;;;75.67;;
59062;SDS011;44851;45.648;9.004;2024-01-25T08:25:11;97.87;;;75.30;;
59062;SDS011;44851;45.648;9.004;2024-01-25T08:27:38;102.67;;;75.03;;
59062;SDS011;44851;45.648;9.004;2024-01-25T08:30:04;105.97;;;81.13;;
59062;SDS011;44851;45.648;9.004;2024-01-25T08:32:30;107.70;;;80.70;;
59062;SDS011;44851;45.648;9.004;2024-01-25T08:34:55;98.97;;;77.13;;
59062;SDS011;44851;45.648;9.004;2024-01-25T08:37:21;101.27;;;78.37;;
59062;SDS011;44851;45.648;9.004;2024-01-25T08:39:46;105.33;;;82.87;;
59062;SDS011;44851;45.648;9.004;2024-01-25T08:42:15;104.73;;;81.10;;
59062;SDS011;44851;45.648;9.004;2024-01-25T08:44:41;101.97;;;80.20;;
59062;SDS011;44851;45.648;9.004;2024-01-25T08:47:13;103.10;;;79.53;;
59062;SDS011;44851;45.648;9.004;2024-01-25T08:49:39;104.63;;;83.90;;
59062;SDS011;44851;45.648;9.004;2024-01-25T08:52:04;98.20;;;78.57;;
59062;SDS011;44851;45.648;9.004;2024-01-25T08:54:30;99.00;;;81.03;;
59062;SDS011;44851;45.648;9.004;2024-01-25T08:56:56;97.70;;;78.13;;
59062;SDS011;44851;45.648;9.004;2024-01-25T08:59:21;99.47;;;80.73;;
59062;SDS011;44851;45.648;9.004;2024-01-25T09:01:46;91.70;;;76.80;;
59062;SDS011;44851;45.648;9.004;2024-01-25T09:04:12;94.70;;;76.37;;
59062;SDS011;44851;45.648;9.004;2024-01-25T09:06:38;88.13;;;74.83;;
59062;SDS011;44851;45.648;9.004;2024-01-25T09:09:03;92.90;;;74.93;;
59062;SDS011;44851;45.648;9.004;2024-01-25T09:11:30;91.00;;;75.73;;
59062;SDS011;44851;45.648;9.004;2024-01-25T09:13:56;87.70;;;74.63;;
59062;SDS011;44851;45.648;9.004;2024-01-25T09:16:21;86.27;;;74.43;;
59062;SDS011;44851;45.648;9.004;2024-01-25T09:18:47;87.90;;;72.97;;
59062;SDS011;44851;45.648;9.004;2024-01-25T09:21:13;91.10;;;74.90;;
59062;SDS011;44851;45.648;9.004;2024-01-25T09:23:39;85.87;;;75.50;;
59062;SDS011;44851;45.648;9.004;2024-01-25T09:26:04;88.40;;;74.57;;
59062;SDS011;44851;45.648;9.004;2024-01-25T09:28:30;83.37;;;71.63;;
59062;SDS011;44851;45.648;9.004;2024-01-25T09:30:55;87.07;;;74.43;;
59062;SDS011;44851;45.648;9.004;2024-01-25T09:33:21;82.07;;;72.80;;
59062;SDS011;44851;45.648;9.004;2024-01-25T09:35:46;82.30;;;72.20;;
59062;SDS011;44851;45.648;9.004;2024-01-25T09:38:12;81.83;;;72.73;;
59062;SDS011;44851;45.648;9.004;2024-01-25T09:40:38;80.93;;;71.83;;
59062;SDS011;44851;45.648;9.004;2024-01-25T09:43:03;87.23;;;77.73;;
59062;SDS011;44851;45.648;9.004;2024-01-25T09:45:29;83.57;;;74.37;;
59062;SDS011;44851;45.648;9.004;2024-01-25T09:47:56;83.20;;;74.10;;
59062;SDS011;44851;45.648;9.004;2024-01-25T09:50:22;85.23;;;74.53;;
59062;SDS011;44851;45.648;9.004;2024-01-25T09:52:49;85.77;;;73.50;;
59062;SDS011;44851;45.648;9.004;2024-01-25T09:55:24;78.70;;;70.03;;
59062;SDS011;44851;45.648;9.004;2024-01-25T09:57:52;83.83;;;73.47;;
59062;SDS011;44851;45.648;9.004;2024-01-25T10:00:19;76.53;;;67.93;;
59062;SDS011;44851;45.648;9.004;2024-01-25T10:02:47;73.37;;;65.40;;
59062;SDS011;44851;45.648;9.004;2024-01-25T10:05:13;74.03;;;65.60;;
59062;SDS011;44851;45.648;9.004;2024-01-25T10:07:39;72.83;;;64.97;;
59062;SDS011;44851;45.648;9.004;2024-01-25T10:10:06;70.47;;;62.07;;
59062;SDS011;44851;45.648;9.004;2024-01-25T10:12:32;69.13;;;61.13;;
59062;SDS011;44851;45.648;9.004;2024-01-25T10:14:58;68.60;;;61.33;;
59062;SDS011;44851;45.648;9.004;2024-01-25T10:17:24;70.37;;;62.83;;
59062;SDS011;44851;45.648;9.004;2024-01-25T10:19:49;68.37;;;60.40;;
59062;SDS011;44851;45.648;9.004;2024-01-25T10:22:15;67.60;;;60.13;;
59062;SDS011;44851;45.648;9.004;2024-01-25T10:24:40;68.70;;;61.37;;
59062;SDS011;44851;45.648;9.004;2024-01-25T10:27:07;71.67;;;62.97;;
59062;SDS011;44851;45.648;9.004;2024-01-25T10:29:34;69.63;;;61.93;;
59062;SDS011;44851;45.648;9.004;2024-01-25T10:31:59;73.77;;;63.37;;
59062;SDS011;44851;45.648;9.004;2024-01-25T10:34:25;65.60;;;58.33;;
59062;SDS011;44851;45.648;9.004;2024-01-25T10:36:51;65.77;;;58.77;;
59062;SDS011;44851;45.648;9.004;2024-01-25T10:39:17;63.70;;;56.93;;
59062;SDS011;44851;45.648;9.004;2024-01-25T10:41:43;63.17;;;56.50;;
59062;SDS011;44851;45.648;9.004;2024-01-25T10:44:15;62.30;;;55.53;;
59062;SDS011;44851;45.648;9.004;2024-01-25T10:46:41;62.93;;;56.10;;
59062;SDS011;44851;45.648;9.004;2024-01-25T10:49:07;62.43;;;55.83;;
59062;SDS011;44851;45.648;9.004;2024-01-25T10:51:32;65.03;;;58.13;;
59062;SDS011;44851;45.648;9.004;2024-01-25T10:53:58;70.27;;;62.70;;
59062;SDS011;44851;45.648;9.004;2024-01-25T10:56:25;67.57;;;60.10;;
59062;SDS011;44851;45.648;9.004;2024-01-25T10:58:51;65.90;;;56.53;;
59062;SDS011;44851;45.648;9.004;2024-01-25T11:01:16;64.40;;;57.40;;
59062;SDS011;44851;45.648;9.004;2024-01-25T11:03:45;64.53;;;57.83;;
59062;SDS011;44851;45.648;9.004;2024-01-25T11:06:13;65.47;;;56.97;;
59062;SDS011;44851;45.648;9.004;2024-01-25T11:08:39;65.07;;;57.90;;
59062;SDS011;44851;45.648;9.004;2024-01-25T11:11:10;68.33;;;59.23;;
59062;SDS011;44851;45.648;9.004;2024-01-25T11:13:40;67.43;;;60.20;;
59062;SDS011;44851;45.648;9.004;2024-01-25T11:16:27;68.77;;;61.47;;
59062;SDS011;44851;45.648;9.004;2024-01-25T11:18:54;71.77;;;63.87;;
59062;SDS011;44851;45.648;9.004;2024-01-25T11:21:27;75.57;;;66.67;;
59062;SDS011;44851;45.648;9.004;2024-01-25T11:24:00;73.53;;;64.80;;
59062;SDS011;44851;45.648;9.004;2024-01-25T11:26:26;68.80;;;61.27;;
59062;SDS011;44851;45.648;9.004;2024-01-25T11:28:52;71.43;;;63.60;;
59062;SDS011;44851;45.648;9.004;2024-01-25T11:31:18;72.33;;;63.80;;
59062;SDS011;44851;45.648;9.004;2024-01-25T11:33:43;69.63;;;62.10;;
59062;SDS011;44851;45.648;9.004;2024-01-25T11:36:09;67.77;;;59.77;;
59062;SDS011;44851;45.648;9.004;2024-01-25T11:38:36;67.27;;;59.93;;
59062;SDS011;44851;45.648;9.004;2024-01-25T11:41:01;68.13;;;60.30;;
59062;SDS011;44851;45.648;9.004;2024-01-25T11:43:26;75.20;;;67.13;;
59062;SDS011;44851;45.648;9.004;2024-01-25T11:45:52;73.37;;;65.07;;
59062;SDS011;44851;45.648;9.004;2024-01-25T11:48:18;78.07;;;69.77;;
59062;SDS011;44851;45.648;9.004;2024-01-25T11:50:43;76.27;;;67.90;;
59062;SDS011;44851;45.648;9.004;2024-01-25T11:53:09;79.50;;;70.97;;
59062;SDS011;44851;45.648;9.004;2024-01-25T11:55:35;79.33;;;70.80;;
59062;SDS011;44851;45.648;9.004;2024-01-25T11:58:00;77.90;;;68.83;;
59062;SDS011;44851;45.648;9.004;2024-01-25T12:00:26;77.67;;;66.53;;
59062;SDS011;44851;45.648;9.004;2024-01-25T12:02:52;75.67;;;67.57;;
59062;SDS011;44851;45.648;9.004;2024-01-25T12:05:18;83.40;;;74.53;;
59062;SDS011;44851;45.648;9.004;2024-01-25T12:07:44;94.20;;;83.63;;
59062;SDS011;44851;45.648;9.004;2024-01-25T12:10:10;87.73;;;78.13;;
59062;SDS011;44851;45.648;9.004;2024-01-25T12:12:42;95.27;;;84.57;;
59062;SDS011;44851;45.648;9.004;2024-01-25T12:15:07;89.47;;;79.33;;
59062;SDS011;44851;45.648;9.004;2024-01-25T12:17:33;102.03;;;88.57;;
59062;SDS011;44851;45.648;9.004;2024-01-25T12:20:01;95.87;;;85.17;;
59062;SDS011;44851;45.648;9.004;2024-01-25T12:22:28;93.97;;;83.80;;
59062;SDS011;44851;45.648;9.004;2024-01-25T12:24:55;100.77;;;89.83;;
59062;SDS011;44851;45.648;9.004;2024-01-25T12:27:21;97.57;;;86.83;;
59062;SDS011;44851;45.648;9.004;2024-01-25T12:29:47;101.23;;;89.37;;
59062;SDS011;44851;45.648;9.004;2024-01-25T12:32:13;109.27;;;94.57;;
59062;SDS011;44851;45.648;9.004;2024-01-25T12:34:39;104.97;;;90.50;;
59062;SDS011;44851;45.648;9.004;2024-01-25T12:37:06;104.40;;;92.60;;
59062;SDS011;44851;45.648;9.004;2024-01-25T12:39:32;103.70;;;92.37;;
59062;SDS011;44851;45.648;9.004;2024-01-25T12:41:57;110.97;;;99.07;;
59062;SDS011;44851;45.648;9.004;2024-01-25T12:44:22;107.57;;;94.83;;
59062;SDS011;44851;45.648;9.004;2024-01-25T12:46:48;105.17;;;93.70;;
59062;SDS011;44851;45.648;9.004;2024-01-25T12:49:13;105.53;;;93.27;;
59062;SDS011;44851;45.648;9.004;2024-01-25T12:51:39;102.90;;;91.57;;
59062;SDS011;44851;45.648;9.004;2024-01-25T12:54:05;111.63;;;99.27;;
59062;SDS011;44851;45.648;9.004;2024-01-25T12:56:30;105.10;;;93.60;;
59062;SDS011;44851;45.648;9.004;2024-01-25T12:58:56;105.70;;;94.17;;
59062;SDS011;44851;45.648;9.004;2024-01-25T13:01:21;104.43;;;93.07;;
59062;SDS011;44851;45.648;9.004;2024-01-25T13:03:46;100.13;;;89.17;;
59062;SDS011;44851;45.648;9.004;2024-01-25T13:06:13;107.73;;;95.20;;
59062;SDS011;44851;45.648;9.004;2024-01-25T13:08:39;106.70;;;95.17;;
59062;SDS011;44851;45.648;9.004;2024-01-25T13:11:04;106.33;;;94.60;;
59062;SDS011;44851;45.648;9.004;2024-01-25T13:13:29;103.83;;;92.47;;
59062;SDS011;44851;45.648;9.004;2024-01-25T13:15:55;105.50;;;93.90;;
59062;SDS011;44851;45.648;9.004;2024-01-25T13:18:20;106.93;;;95.30;;
59062;SDS011;44851;45.648;9.004;2024-01-25T13:20:46;107.93;;;96.10;;
59062;SDS011;44851;45.648;9.004;2024-01-25T13:23:11;101.03;;;88.50;;
59062;SDS011;44851;45.648;9.004;2024-01-25T13:25:37;103.67;;;91.57;;
59062;SDS011;44851;45.648;9.004;2024-01-25T13:28:02;108.57;;;94.20;;
59062;SDS011;44851;45.648;9.004;2024-01-25T13:30:27;100.90;;;90.10;;
59062;SDS011;44851;45.648;9.004;2024-01-25T13:32:53;99.20;;;88.57;;
59062;SDS011;44851;45.648;9.004;2024-01-25T13:35:18;99.07;;;88.17;;
59062;SDS011;44851;45.648;9.004;2024-01-25T13:37:43;99.37;;;88.63;;
59062;SDS011;44851;45.648;9.004;2024-01-25T13:40:09;101.70;;;90.57;;
59062;SDS011;44851;45.648;9.004;2024-01-25T13:42:34;102.90;;;87.47;;
59062;SDS011;44851;45.648;9.004;2024-01-25T13:45:00;102.97;;;91.30;;
59062;SDS011;44851;45.648;9.004;2024-01-25T13:47:25;103.57;;;91.53;;
59062;SDS011;44851;45.648;9.004;2024-01-25T13:49:51;99.53;;;88.47;;
59062;SDS011;44851;45.648;9.004;2024-01-25T13:52:19;98.40;;;87.57;;
59062;SDS011;44851;45.648;9.004;2024-01-25T13:54:45;101.63;;;90.20;;
59062;SDS011;44851;45.648;9.004;2024-01-25T13:57:11;105.70;;;94.17;;
59062;SDS011;44851;45.648;9.004;2024-01-25T13:59:38;102.00;;;91.20;;
59062;SDS011;44851;45.648;9.004;2024-01-25T14:02:03;104.37;;;91.13;;
59062;SDS011;44851;45.648;9.004;2024-01-25T14:04:32;104.67;;;92.43;;
59062;SDS011;44851;45.648;9.004;2024-01-25T14:06:57;101.77;;;90.70;;
59062;SDS011;44851;45.648;9.004;2024-01-25T14:09:22;106.03;;;94.00;;
59062;SDS011;44851;45.648;9.004;2024-01-25T14:11:48;107.07;;;95.23;;